sensor_id;sensor_type;location;lat;lon;timestamp;P1;durP1;ratioP1;P2;durP2;ratioP2
51382;SDS011;37475;43.358;1.248;2023-04-10T00:02:21;4.72;;;2.38;;
51382;SDS011;37475;43.358;1.248;2023-04-10T00:04:47;5.40;;;2.38;;
51382;SDS011;37475;43.358;1.248;2023-04-10T00:07:13;5.25;;;2.15;;
51382;SDS011;37475;43.358;1.248;2023-04-10T00:09:39;5.60;;;2.50;;
51382;SDS011;37475;43.358;1.248;2023-04-10T00:12:05;4.15;;;2.28;;
51382;SDS011;37475;43.358;1.248;2023-04-10T00:14:31;5.57;;;2.67;;
51382;SDS011;37475;43.358;1.248;2023-04-10T00:16:57;6.55;;;2.38;;
51382;SDS011;37475;43.358;1.248;2023-04-10T00:19:23;4.97;;;2.53;;
51382;SDS011;37475;43.358;1.248;2023-04-10T00:21:49;7.40;;;2.40;;
51382;SDS011;37475;43.358;1.248;2023-04-10T00:24:14;5.80;;;2.35;;
51382;SDS011;37475;43.358;1.248;2023-04-10T00:26:40;5.20;;;2.30;;
51382;SDS011;37475;43.358;1.248;2023-04-10T00:29:06;5.97;;;2.55;;
51382;SDS011;37475;43.358;1.248;2023-04-10T00:31:32;5.00;;;2.38;;
51382;SDS011;37475;43.358;1.248;2023-04-10T00:33:58;4.60;;;2.20;;
51382;SDS011;37475;43.358;1.248;2023-04-10T00:36:23;7.88;;;2.28;;
51382;SDS011;37475;43.358;1.248;2023-04-10T00:38:50;7.20;;;2.50;;
51382;SDS011;37475;43.358;1.248;2023-04-10T00:41:16;5.45;;;2.50;;
51382;SDS011;37475;43.358;1.248;2023-04-10T00:43:43;6.63;;;2.72;;
51382;SDS011;37475;43.358;1.248;2023-04-10T00:46:09;6.75;;;2.70;;
51382;SDS011;37475;43.358;1.248;2023-04-10T00:48:35;6.43;;;2.35;;
51382;SDS011;37475;43.358;1.248;2023-04-10T00:51:02;8.20;;;2.85;;
51382;SDS011;37475;43.358;1.248;2023-04-10T00:53:30;5.93;;;2.80;;
51382;SDS011;37475;43.358;1.248;2023-04-10T00:55:56;5.38;;;2.63;;
51382;SDS011;37475;43.358;1.248;2023-04-10T00:58:22;6.03;;;2.78;;
51382;SDS011;37475;43.358;1.248;2023-04-10T01:00:48;9.95;;;2.65;;
51382;SDS011;37475;43.358;1.248;2023-04-10T01:03:14;5.45;;;2.63;;
51382;SDS011;37475;43.358;1.248;2023-04-10T01:11:44;5.05;;;2.30;;
51382;SDS011;37475;43.358;1.248;2023-04-10T01:22:36;5.70;;;2.20;;
51382;SDS011;37475;43.358;1.248;2023-04-10T01:30:56;4.40;;;2.08;;
51382;SDS011;37475;43.358;1.248;2023-04-10T01:33:25;3.88;;;1.80;;
51382;SDS011;37475;43.358;1.248;2023-04-10T01:36:01;5.30;;;1.90;;
51382;SDS011;37475;43.358;1.248;2023-04-10T01:38:29;4.10;;;2.00;;
51382;SDS011;37475;43.358;1.248;2023-04-10T01:40:57;4.20;;;2.00;;
51382;SDS011;37475;43.358;1.248;2023-04-10T01:43:25;10.93;;;2.25;;
51382;SDS011;37475;43.358;1.248;2023-04-10T01:45:53;4.25;;;1.77;;
51382;SDS011;37475;43.358;1.248;2023-04-10T01:48:21;4.43;;;2.00;;
51382;SDS011;37475;43.358;1.248;2023-04-10T01:50:47;4.10;;;1.90;;
51382;SDS011;37475;43.358;1.248;2023-04-10T01:53:14;5.88;;;2.28;;
51382;SDS011;37475;43.358;1.248;2023-04-10T01:55:40;4.38;;;2.00;;
51382;SDS011;37475;43.358;1.248;2023-04-10T01:58:07;4.40;;;2.00;;
51382;SDS011;37475;43.358;1.248;2023-04-10T02:00:40;4.25;;;2.13;;
51382;SDS011;37475;43.358;1.248;2023-04-10T02:03:07;5.75;;;1.92;;
51382;SDS011;37475;43.358;1.248;2023-04-10T02:06:02;5.80;;;2.33;;
51382;SDS011;37475;43.358;1.248;2023-04-10T02:08:33;4.45;;;1.88;;
51382;SDS011;37475;43.358;1.248;2023-04-10T02:11:03;4.72;;;1.90;;
51382;SDS011;37475;43.358;1.248;2023-04-10T02:13:37;5.72;;;1.90;;
51382;SDS011;37475;43.358;1.248;2023-04-10T02:16:06;3.60;;;1.90;;
51382;SDS011;37475;43.358;1.248;2023-04-10T02:18:33;6.13;;;2.10;;
51382;SDS011;37475;43.358;1.248;2023-04-10T02:21:01;4.72;;;2.05;;
51382;SDS011;37475;43.358;1.248;2023-04-10T02:23:27;5.82;;;2.10;;
51382;SDS011;37475;43.358;1.248;2023-04-10T02:25:53;5.13;;;1.73;;
51382;SDS011;37475;43.358;1.248;2023-04-10T02:28:22;4.47;;;2.08;;
51382;SDS011;37475;43.358;1.248;2023-04-10T02:30:49;3.95;;;2.00;;
51382;SDS011;37475;43.358;1.248;2023-04-10T02:33:14;4.43;;;2.47;;
51382;SDS011;37475;43.358;1.248;2023-04-10T02:35:40;6.22;;;2.28;;
51382;SDS011;37475;43.358;1.248;2023-04-10T02:38:06;5.28;;;2.13;;
51382;SDS011;37475;43.358;1.248;2023-04-10T02:40:32;6.53;;;3.08;;
51382;SDS011;37475;43.358;1.248;2023-04-10T02:42:58;9.93;;;3.22;;
51382;SDS011;37475;43.358;1.248;2023-04-10T02:45:23;6.35;;;2.80;;
51382;SDS011;37475;43.358;1.248;2023-04-10T02:47:50;7.22;;;2.80;;
51382;SDS011;37475;43.358;1.248;2023-04-10T02:50:16;7.13;;;2.92;;
51382;SDS011;37475;43.358;1.248;2023-04-10T02:52:42;8.73;;;3.80;;
51382;SDS011;37475;43.358;1.248;2023-04-10T02:55:08;6.82;;;2.75;;
51382;SDS011;37475;43.358;1.248;2023-04-10T02:57:34;5.60;;;2.60;;
51382;SDS011;37475;43.358;1.248;2023-04-10T03:00:00;6.60;;;2.40;;
51382;SDS011;37475;43.358;1.248;2023-04-10T03:02:28;6.82;;;2.50;;
51382;SDS011;37475;43.358;1.248;2023-04-10T03:04:54;7.32;;;2.60;;
51382;SDS011;37475;43.358;1.248;2023-04-10T03:07:20;6.03;;;2.35;;
51382;SDS011;37475;43.358;1.248;2023-04-10T03:09:46;7.60;;;2.20;;
51382;SDS011;37475;43.358;1.248;2023-04-10T03:12:12;6.32;;;2.50;;
51382;SDS011;37475;43.358;1.248;2023-04-10T03:14:37;4.90;;;2.60;;
51382;SDS011;37475;43.358;1.248;2023-04-10T03:17:04;5.88;;;2.97;;
51382;SDS011;37475;43.358;1.248;2023-04-10T03:19:31;4.95;;;2.50;;
51382;SDS011;37475;43.358;1.248;2023-04-10T03:21:57;7.60;;;2.58;;
51382;SDS011;37475;43.358;1.248;2023-04-10T03:24:22;5.35;;;2.75;;
51382;SDS011;37475;43.358;1.248;2023-04-10T03:26:48;7.05;;;2.80;;
51382;SDS011;37475;43.358;1.248;2023-04-10T03:29:14;5.10;;;2.70;;
51382;SDS011;37475;43.358;1.248;2023-04-10T03:31:42;6.18;;;2.83;;
51382;SDS011;37475;43.358;1.248;2023-04-10T03:34:09;6.10;;;2.45;;
51382;SDS011;37475;43.358;1.248;2023-04-10T03:36:34;7.80;;;2.58;;
51382;SDS011;37475;43.358;1.248;2023-04-10T03:39:00;6.80;;;2.70;;
51382;SDS011;37475;43.358;1.248;2023-04-10T03:41:26;6.10;;;2.60;;
51382;SDS011;37475;43.358;1.248;2023-04-10T03:43:52;4.47;;;2.50;;
51382;SDS011;37475;43.358;1.248;2023-04-10T03:46:17;8.00;;;3.00;;
51382;SDS011;37475;43.358;1.248;2023-04-10T03:48:43;5.50;;;2.80;;
51382;SDS011;37475;43.358;1.248;2023-04-10T03:51:09;8.90;;;4.40;;
51382;SDS011;37475;43.358;1.248;2023-04-10T03:53:35;5.68;;;2.83;;
51382;SDS011;37475;43.358;1.248;2023-04-10T03:56:01;7.15;;;2.95;;
51382;SDS011;37475;43.358;1.248;2023-04-10T03:58:27;5.53;;;3.00;;
51382;SDS011;37475;43.358;1.248;2023-04-10T04:00:53;6.07;;;3.00;;
51382;SDS011;37475;43.358;1.248;2023-04-10T04:03:20;7.30;;;3.00;;
51382;SDS011;37475;43.358;1.248;2023-04-10T04:05:45;7.38;;;3.13;;
51382;SDS011;37475;43.358;1.248;2023-04-10T04:08:11;5.45;;;2.90;;
51382;SDS011;37475;43.358;1.248;2023-04-10T04:10:38;6.97;;;3.13;;
51382;SDS011;37475;43.358;1.248;2023-04-10T04:13:04;5.88;;;2.80;;
51382;SDS011;37475;43.358;1.248;2023-04-10T04:15:29;5.80;;;2.78;;
51382;SDS011;37475;43.358;1.248;2023-04-10T04:17:55;7.40;;;3.28;;
51382;SDS011;37475;43.358;1.248;2023-04-10T04:20:21;6.35;;;3.45;;
51382;SDS011;37475;43.358;1.248;2023-04-10T04:22:47;7.65;;;3.25;;
51382;SDS011;37475;43.358;1.248;2023-04-10T04:25:13;5.55;;;3.17;;
51382;SDS011;37475;43.358;1.248;2023-04-10T04:27:39;5.28;;;3.10;;
51382;SDS011;37475;43.358;1.248;2023-04-10T04:30:05;6.50;;;3.05;;
51382;SDS011;37475;43.358;1.248;2023-04-10T04:32:33;5.45;;;2.88;;
51382;SDS011;37475;43.358;1.248;2023-04-10T04:34:58;8.98;;;3.30;;
51382;SDS011;37475;43.358;1.248;2023-04-10T04:37:24;8.18;;;3.38;;
51382;SDS011;37475;43.358;1.248;2023-04-10T04:39:50;5.15;;;3.03;;
51382;SDS011;37475;43.358;1.248;2023-04-10T04:42:16;9.77;;;3.58;;
51382;SDS011;37475;43.358;1.248;2023-04-10T04:44:41;7.70;;;3.40;;
51382;SDS011;37475;43.358;1.248;2023-04-10T04:47:07;7.63;;;3.55;;
51382;SDS011;37475;43.358;1.248;2023-04-10T04:49:33;6.60;;;3.35;;
51382;SDS011;37475;43.358;1.248;2023-04-10T04:51:59;7.78;;;3.70;;
51382;SDS011;37475;43.358;1.248;2023-04-10T04:54:25;37.67;;;11.57;;
51382;SDS011;37475;43.358;1.248;2023-04-10T04:56:50;36.10;;;11.65;;
51382;SDS011;37475;43.358;1.248;2023-04-10T04:59:16;27.75;;;9.10;;
51382;SDS011;37475;43.358;1.248;2023-04-10T05:01:42;24.63;;;8.07;;
51382;SDS011;37475;43.358;1.248;2023-04-10T05:04:08;28.20;;;9.00;;
51382;SDS011;37475;43.358;1.248;2023-04-10T05:06:33;39.78;;;13.50;;
51382;SDS011;37475;43.358;1.248;2023-04-10T05:09:00;64.28;;;17.48;;
51382;SDS011;37475;43.358;1.248;2023-04-10T05:11:25;53.88;;;16.05;;
51382;SDS011;37475;43.358;1.248;2023-04-10T05:13:51;69.43;;;18.45;;
51382;SDS011;37475;43.358;1.248;2023-04-10T05:16:17;59.13;;;17.70;;
51382;SDS011;37475;43.358;1.248;2023-04-10T05:18:43;57.15;;;16.17;;
51382;SDS011;37475;43.358;1.248;2023-04-10T05:21:10;28.70;;;9.00;;
51382;SDS011;37475;43.358;1.248;2023-04-10T05:23:36;51.13;;;14.75;;
51382;SDS011;37475;43.358;1.248;2023-04-10T05:26:01;52.38;;;16.52;;
51382;SDS011;37475;43.358;1.248;2023-04-10T05:28:27;44.22;;;14.45;;
51382;SDS011;37475;43.358;1.248;2023-04-10T05:30:53;46.63;;;15.80;;
51382;SDS011;37475;43.358;1.248;2023-04-10T05:33:19;58.80;;;17.77;;
51382;SDS011;37475;43.358;1.248;2023-04-10T05:35:45;88.80;;;27.27;;
51382;SDS011;37475;43.358;1.248;2023-04-10T05:38:11;100.75;;;28.17;;
51382;SDS011;37475;43.358;1.248;2023-04-10T05:40:37;31.52;;;10.50;;
51382;SDS011;37475;43.358;1.248;2023-04-10T05:43:02;40.50;;;13.23;;
51382;SDS011;37475;43.358;1.248;2023-04-10T05:45:28;57.35;;;19.33;;
51382;SDS011;37475;43.358;1.248;2023-04-10T05:47:54;46.30;;;15.88;;
51382;SDS011;37475;43.358;1.248;2023-04-10T05:50:20;43.30;;;14.82;;
51382;SDS011;37475;43.358;1.248;2023-04-10T05:52:45;46.13;;;15.23;;
51382;SDS011;37475;43.358;1.248;2023-04-10T05:55:11;53.10;;;17.60;;
51382;SDS011;37475;43.358;1.248;2023-04-10T05:57:37;47.38;;;16.27;;
51382;SDS011;37475;43.358;1.248;2023-04-10T06:00:04;41.83;;;13.93;;
51382;SDS011;37475;43.358;1.248;2023-04-10T06:02:31;26.02;;;7.68;;
51382;SDS011;37475;43.358;1.248;2023-04-10T06:04:57;16.33;;;7.10;;
51382;SDS011;37475;43.358;1.248;2023-04-10T06:07:22;8.50;;;3.92;;
51382;SDS011;37475;43.358;1.248;2023-04-10T06:09:48;6.68;;;3.50;;
51382;SDS011;37475;43.358;1.248;2023-04-10T06:12:14;7.75;;;3.95;;
51382;SDS011;37475;43.358;1.248;2023-04-10T06:14:41;9.77;;;4.68;;
51382;SDS011;37475;43.358;1.248;2023-04-10T06:17:07;10.63;;;4.57;;
51382;SDS011;37475;43.358;1.248;2023-04-10T06:19:32;6.30;;;3.78;;
51382;SDS011;37475;43.358;1.248;2023-04-10T06:21:58;11.50;;;4.10;;
51382;SDS011;37475;43.358;1.248;2023-04-10T06:24:24;10.13;;;4.63;;
51382;SDS011;37475;43.358;1.248;2023-04-10T06:26:50;9.82;;;4.50;;
51382;SDS011;37475;43.358;1.248;2023-04-10T06:29:16;11.43;;;4.82;;
51382;SDS011;37475;43.358;1.248;2023-04-10T06:31:41;9.60;;;4.30;;
51382;SDS011;37475;43.358;1.248;2023-04-10T06:34:08;8.52;;;4.20;;
51382;SDS011;37475;43.358;1.248;2023-04-10T06:36:33;12.85;;;4.60;;
51382;SDS011;37475;43.358;1.248;2023-04-10T06:38:59;16.55;;;5.60;;
51382;SDS011;37475;43.358;1.248;2023-04-10T06:41:26;11.50;;;5.07;;
51382;SDS011;37475;43.358;1.248;2023-04-10T06:43:52;11.80;;;5.05;;
51382;SDS011;37475;43.358;1.248;2023-04-10T06:46:18;14.13;;;5.82;;
51382;SDS011;37475;43.358;1.248;2023-04-10T06:48:44;11.73;;;5.25;;
51382;SDS011;37475;43.358;1.248;2023-04-10T06:51:10;11.32;;;5.38;;
51382;SDS011;37475;43.358;1.248;2023-04-10T06:53:35;9.95;;;5.20;;
51382;SDS011;37475;43.358;1.248;2023-04-10T06:56:01;15.25;;;6.25;;
51382;SDS011;37475;43.358;1.248;2023-04-10T06:58:27;16.75;;;8.80;;
51382;SDS011;37475;43.358;1.248;2023-04-10T07:00:54;42.35;;;18.80;;
51382;SDS011;37475;43.358;1.248;2023-04-10T07:03:20;39.75;;;16.67;;
51382;SDS011;37475;43.358;1.248;2023-04-10T07:05:45;30.65;;;14.88;;
51382;SDS011;37475;43.358;1.248;2023-04-10T07:08:11;23.92;;;11.38;;
51382;SDS011;37475;43.358;1.248;2023-04-10T07:10:37;25.00;;;11.27;;
51382;SDS011;37475;43.358;1.248;2023-04-10T07:13:03;24.65;;;11.98;;
51382;SDS011;37475;43.358;1.248;2023-04-10T07:15:28;25.27;;;11.20;;
51382;SDS011;37475;43.358;1.248;2023-04-10T07:17:54;21.55;;;10.85;;
51382;SDS011;37475;43.358;1.248;2023-04-10T07:20:20;15.43;;;8.13;;
51382;SDS011;37475;43.358;1.248;2023-04-10T07:22:46;10.93;;;4.95;;
51382;SDS011;37475;43.358;1.248;2023-04-10T07:25:11;11.52;;;5.22;;
51382;SDS011;37475;43.358;1.248;2023-04-10T07:27:38;12.65;;;5.25;;
51382;SDS011;37475;43.358;1.248;2023-04-10T07:30:04;12.02;;;5.05;;
51382;SDS011;37475;43.358;1.248;2023-04-10T07:32:31;10.20;;;5.25;;
51382;SDS011;37475;43.358;1.248;2023-04-10T07:34:58;11.65;;;5.07;;
51382;SDS011;37475;43.358;1.248;2023-04-10T07:37:24;11.98;;;5.25;;
51382;SDS011;37475;43.358;1.248;2023-04-10T07:39:50;11.55;;;5.63;;
51382;SDS011;37475;43.358;1.248;2023-04-10T07:42:16;11.82;;;5.30;;
51382;SDS011;37475;43.358;1.248;2023-04-10T07:44:42;10.45;;;5.78;;
51382;SDS011;37475;43.358;1.248;2023-04-10T07:47:07;10.68;;;6.28;;
51382;SDS011;37475;43.358;1.248;2023-04-10T07:49:33;13.60;;;6.10;;
51382;SDS011;37475;43.358;1.248;2023-04-10T07:51:59;14.70;;;6.72;;
51382;SDS011;37475;43.358;1.248;2023-04-10T07:54:25;16.15;;;6.50;;
51382;SDS011;37475;43.358;1.248;2023-04-10T07:56:51;16.90;;;7.53;;
51382;SDS011;37475;43.358;1.248;2023-04-10T07:59:17;17.77;;;7.18;;
51382;SDS011;37475;43.358;1.248;2023-04-10T08:01:43;18.73;;;8.98;;
51382;SDS011;37475;43.358;1.248;2023-04-10T08:04:08;15.35;;;7.95;;
51382;SDS011;37475;43.358;1.248;2023-04-10T08:06:35;13.82;;;7.25;;
51382;SDS011;37475;43.358;1.248;2023-04-10T08:09:00;14.40;;;6.50;;
51382;SDS011;37475;43.358;1.248;2023-04-10T08:11:27;12.60;;;6.30;;
51382;SDS011;37475;43.358;1.248;2023-04-10T08:13:55;13.65;;;6.78;;
51382;SDS011;37475;43.358;1.248;2023-04-10T08:16:26;19.70;;;8.52;;
51382;SDS011;37475;43.358;1.248;2023-04-10T08:18:54;10.82;;;5.57;;
51382;SDS011;37475;43.358;1.248;2023-04-10T08:21:21;11.98;;;5.80;;
51382;SDS011;37475;43.358;1.248;2023-04-10T08:23:52;11.30;;;5.85;;
51382;SDS011;37475;43.358;1.248;2023-04-10T08:26:20;11.45;;;5.45;;
51382;SDS011;37475;43.358;1.248;2023-04-10T08:28:46;13.30;;;5.43;;
51382;SDS011;37475;43.358;1.248;2023-04-10T08:31:15;16.08;;;6.05;;
51382;SDS011;37475;43.358;1.248;2023-04-10T08:33:42;14.20;;;5.55;;
51382;SDS011;37475;43.358;1.248;2023-04-10T08:36:08;13.60;;;6.00;;
51382;SDS011;37475;43.358;1.248;2023-04-10T08:38:34;13.43;;;5.50;;
51382;SDS011;37475;43.358;1.248;2023-04-10T08:41:00;15.13;;;5.90;;
51382;SDS011;37475;43.358;1.248;2023-04-10T08:43:26;11.73;;;5.53;;
51382;SDS011;37475;43.358;1.248;2023-04-10T08:45:52;11.80;;;5.53;;
51382;SDS011;37475;43.358;1.248;2023-04-10T08:48:18;11.90;;;6.03;;
51382;SDS011;37475;43.358;1.248;2023-04-10T08:50:45;13.45;;;6.13;;
51382;SDS011;37475;43.358;1.248;2023-04-10T08:53:13;11.45;;;5.97;;
51382;SDS011;37475;43.358;1.248;2023-04-10T08:55:40;13.85;;;5.80;;
51382;SDS011;37475;43.358;1.248;2023-04-10T08:58:06;11.00;;;5.32;;
51382;SDS011;37475;43.358;1.248;2023-04-10T09:00:33;11.73;;;5.97;;
51382;SDS011;37475;43.358;1.248;2023-04-10T09:03:02;15.70;;;6.40;;
51382;SDS011;37475;43.358;1.248;2023-04-10T09:05:38;12.00;;;6.00;;
51382;SDS011;37475;43.358;1.248;2023-04-10T09:08:06;19.85;;;6.85;;
51382;SDS011;37475;43.358;1.248;2023-04-10T09:10:33;12.55;;;5.35;;
51382;SDS011;37475;43.358;1.248;2023-04-10T09:12:59;13.60;;;5.30;;
51382;SDS011;37475;43.358;1.248;2023-04-10T09:15:25;15.88;;;4.30;;
51382;SDS011;37475;43.358;1.248;2023-04-10T09:17:54;15.50;;;5.60;;
51382;SDS011;37475;43.358;1.248;2023-04-10T09:20:23;10.32;;;4.78;;
51382;SDS011;37475;43.358;1.248;2023-04-10T09:22:50;12.70;;;5.00;;
51382;SDS011;37475;43.358;1.248;2023-04-10T09:28:06;11.20;;;4.93;;
51382;SDS011;37475;43.358;1.248;2023-04-10T09:30:40;13.68;;;4.60;;
51382;SDS011;37475;43.358;1.248;2023-04-10T09:35:46;9.68;;;4.75;;
51382;SDS011;37475;43.358;1.248;2023-04-10T09:38:13;11.73;;;5.00;;
51382;SDS011;37475;43.358;1.248;2023-04-10T09:40:40;10.32;;;4.43;;
51382;SDS011;37475;43.358;1.248;2023-04-10T09:43:17;10.73;;;4.60;;
51382;SDS011;37475;43.358;1.248;2023-04-10T09:45:50;11.23;;;4.55;;
51382;SDS011;37475;43.358;1.248;2023-04-10T09:48:21;11.18;;;4.53;;
51382;SDS011;37475;43.358;1.248;2023-04-10T09:50:49;10.48;;;4.40;;
51382;SDS011;37475;43.358;1.248;2023-04-10T09:53:16;10.50;;;4.43;;
51382;SDS011;37475;43.358;1.248;2023-04-10T09:55:44;12.40;;;4.78;;
51382;SDS011;37475;43.358;1.248;2023-04-10T09:58:12;10.02;;;4.70;;
51382;SDS011;37475;43.358;1.248;2023-04-10T10:00:43;11.02;;;4.30;;
51382;SDS011;37475;43.358;1.248;2023-04-10T10:03:12;7.60;;;4.22;;
51382;SDS011;37475;43.358;1.248;2023-04-10T10:05:41;13.98;;;5.10;;
51382;SDS011;37475;43.358;1.248;2023-04-10T10:08:10;7.30;;;4.20;;
51382;SDS011;37475;43.358;1.248;2023-04-10T10:10:59;9.45;;;3.97;;
51382;SDS011;37475;43.358;1.248;2023-04-10T10:13:34;9.82;;;4.50;;
51382;SDS011;37475;43.358;1.248;2023-04-10T10:16:23;9.48;;;4.53;;
51382;SDS011;37475;43.358;1.248;2023-04-10T10:19:21;11.38;;;4.90;;
51382;SDS011;37475;43.358;1.248;2023-04-10T10:22:07;9.20;;;4.90;;
51382;SDS011;37475;43.358;1.248;2023-04-10T10:24:35;14.70;;;4.63;;
51382;SDS011;37475;43.358;1.248;2023-04-10T10:27:05;13.73;;;4.75;;
51382;SDS011;37475;43.358;1.248;2023-04-10T10:29:34;11.35;;;4.75;;
51382;SDS011;37475;43.358;1.248;2023-04-10T10:32:03;8.93;;;4.30;;
51382;SDS011;37475;43.358;1.248;2023-04-10T10:34:32;15.07;;;4.30;;
51382;SDS011;37475;43.358;1.248;2023-04-10T10:36:59;12.98;;;4.30;;
51382;SDS011;37475;43.358;1.248;2023-04-10T10:40:10;10.75;;;4.53;;
51382;SDS011;37475;43.358;1.248;2023-04-10T10:42:39;10.60;;;4.30;;
51382;SDS011;37475;43.358;1.248;2023-04-10T10:45:32;11.98;;;4.25;;
51382;SDS011;37475;43.358;1.248;2023-04-10T10:48:04;11.50;;;4.47;;
51382;SDS011;37475;43.358;1.248;2023-04-10T10:58:45;12.90;;;5.10;;
51382;SDS011;37475;43.358;1.248;2023-04-10T11:01:12;8.77;;;4.38;;
51382;SDS011;37475;43.358;1.248;2023-04-10T11:03:38;9.85;;;4.15;;
51382;SDS011;37475;43.358;1.248;2023-04-10T11:06:08;11.52;;;4.30;;
51382;SDS011;37475;43.358;1.248;2023-04-10T11:08:47;8.05;;;3.85;;
51382;SDS011;37475;43.358;1.248;2023-04-10T11:11:23;9.77;;;4.20;;
51382;SDS011;37475;43.358;1.248;2023-04-10T11:16:42;8.48;;;4.03;;
51382;SDS011;37475;43.358;1.248;2023-04-10T11:19:12;12.05;;;4.85;;
51382;SDS011;37475;43.358;1.248;2023-04-10T11:24:28;10.00;;;3.75;;
51382;SDS011;37475;43.358;1.248;2023-04-10T11:30:32;10.32;;;4.32;;
51382;SDS011;37475;43.358;1.248;2023-04-10T11:33:00;8.10;;;3.80;;
51382;SDS011;37475;43.358;1.248;2023-04-10T11:35:27;9.57;;;4.72;;
51382;SDS011;37475;43.358;1.248;2023-04-10T11:38:11;9.18;;;4.10;;
51382;SDS011;37475;43.358;1.248;2023-04-10T11:40:52;10.40;;;4.57;;
51382;SDS011;37475;43.358;1.248;2023-04-10T11:43:19;8.13;;;4.03;;
51382;SDS011;37475;43.358;1.248;2023-04-10T11:45:45;10.43;;;4.28;;
51382;SDS011;37475;43.358;1.248;2023-04-10T11:48:11;11.52;;;4.57;;
51382;SDS011;37475;43.358;1.248;2023-04-10T11:50:36;13.82;;;4.20;;
51382;SDS011;37475;43.358;1.248;2023-04-10T11:53:16;8.18;;;3.90;;
51382;SDS011;37475;43.358;1.248;2023-04-10T11:55:45;12.73;;;4.05;;
51382;SDS011;37475;43.358;1.248;2023-04-10T11:58:24;7.82;;;3.75;;
51382;SDS011;37475;43.358;1.248;2023-04-10T12:00:59;8.52;;;4.32;;
51382;SDS011;37475;43.358;1.248;2023-04-10T12:03:38;9.15;;;4.25;;
51382;SDS011;37475;43.358;1.248;2023-04-10T12:06:07;7.88;;;4.50;;
51382;SDS011;37475;43.358;1.248;2023-04-10T12:08:37;8.90;;;4.22;;
51382;SDS011;37475;43.358;1.248;2023-04-10T12:11:33;7.55;;;4.38;;
51382;SDS011;37475;43.358;1.248;2023-04-10T12:13:59;8.48;;;4.43;;
51382;SDS011;37475;43.358;1.248;2023-04-10T12:16:24;7.57;;;4.13;;
51382;SDS011;37475;43.358;1.248;2023-04-10T12:18:51;10.00;;;4.90;;
51382;SDS011;37475;43.358;1.248;2023-04-10T12:21:17;9.00;;;4.25;;
51382;SDS011;37475;43.358;1.248;2023-04-10T12:23:43;8.45;;;4.68;;
51382;SDS011;37475;43.358;1.248;2023-04-10T12:26:15;12.05;;;4.25;;
51382;SDS011;37475;43.358;1.248;2023-04-10T12:28:52;10.38;;;4.18;;
51382;SDS011;37475;43.358;1.248;2023-04-10T12:33:58;14.13;;;4.55;;
51382;SDS011;37475;43.358;1.248;2023-04-10T12:36:28;11.95;;;4.63;;
51382;SDS011;37475;43.358;1.248;2023-04-10T12:39:00;7.13;;;4.03;;
51382;SDS011;37475;43.358;1.248;2023-04-10T12:41:31;12.40;;;5.18;;
51382;SDS011;37475;43.358;1.248;2023-04-10T12:44:11;9.85;;;4.30;;
51382;SDS011;37475;43.358;1.248;2023-04-10T12:46:38;8.98;;;4.50;;
51382;SDS011;37475;43.358;1.248;2023-04-10T12:51:55;9.35;;;4.93;;
51382;SDS011;37475;43.358;1.248;2023-04-10T12:54:39;8.60;;;4.90;;
51382;SDS011;37475;43.358;1.248;2023-04-10T12:57:05;7.25;;;4.90;;
51382;SDS011;37475;43.358;1.248;2023-04-10T12:59:31;8.77;;;4.80;;
51382;SDS011;37475;43.358;1.248;2023-04-10T13:01:57;8.63;;;4.65;;
51382;SDS011;37475;43.358;1.248;2023-04-10T13:04:23;9.05;;;5.20;;
51382;SDS011;37475;43.358;1.248;2023-04-10T13:06:49;9.95;;;4.68;;
51382;SDS011;37475;43.358;1.248;2023-04-10T13:09:16;8.70;;;4.70;;
51382;SDS011;37475;43.358;1.248;2023-04-10T13:11:42;9.13;;;4.78;;
51382;SDS011;37475;43.358;1.248;2023-04-10T13:14:08;9.82;;;4.75;;
51382;SDS011;37475;43.358;1.248;2023-04-10T13:16:35;7.78;;;4.32;;
51382;SDS011;37475;43.358;1.248;2023-04-10T13:19:01;10.75;;;4.53;;
51382;SDS011;37475;43.358;1.248;2023-04-10T13:21:27;8.43;;;4.25;;
51382;SDS011;37475;43.358;1.248;2023-04-10T13:23:53;10.15;;;4.63;;
51382;SDS011;37475;43.358;1.248;2023-04-10T13:26:20;9.55;;;5.03;;
51382;SDS011;37475;43.358;1.248;2023-04-10T13:28:47;9.05;;;4.55;;
51382;SDS011;37475;43.358;1.248;2023-04-10T13:31:12;10.38;;;4.35;;
51382;SDS011;37475;43.358;1.248;2023-04-10T13:33:45;7.85;;;4.00;;
51382;SDS011;37475;43.358;1.248;2023-04-10T13:36:12;7.90;;;4.60;;
51382;SDS011;37475;43.358;1.248;2023-04-10T13:38:39;7.13;;;4.03;;
51382;SDS011;37475;43.358;1.248;2023-04-10T13:41:05;8.35;;;4.30;;
51382;SDS011;37475;43.358;1.248;2023-04-10T13:43:31;7.50;;;4.38;;
51382;SDS011;37475;43.358;1.248;2023-04-10T13:45:57;8.85;;;3.67;;
51382;SDS011;37475;43.358;1.248;2023-04-10T13:48:22;9.68;;;3.70;;
51382;SDS011;37475;43.358;1.248;2023-04-10T13:50:48;9.35;;;3.63;;
51382;SDS011;37475;43.358;1.248;2023-04-10T13:53:14;8.55;;;3.55;;
51382;SDS011;37475;43.358;1.248;2023-04-10T13:55:40;7.68;;;3.20;;
51382;SDS011;37475;43.358;1.248;2023-04-10T13:58:08;7.07;;;3.45;;
51382;SDS011;37475;43.358;1.248;2023-04-10T14:00:41;8.10;;;3.55;;
51382;SDS011;37475;43.358;1.248;2023-04-10T14:03:08;7.53;;;3.20;;
51382;SDS011;37475;43.358;1.248;2023-04-10T14:05:36;6.82;;;3.00;;
51382;SDS011;37475;43.358;1.248;2023-04-10T14:08:05;6.75;;;2.70;;
51382;SDS011;37475;43.358;1.248;2023-04-10T14:10:31;6.80;;;2.58;;
51382;SDS011;37475;43.358;1.248;2023-04-10T14:12:57;7.15;;;2.72;;
51382;SDS011;37475;43.358;1.248;2023-04-10T14:15:22;5.97;;;2.13;;
51382;SDS011;37475;43.358;1.248;2023-04-10T14:17:48;3.72;;;2.03;;
51382;SDS011;37475;43.358;1.248;2023-04-10T14:20:14;5.68;;;2.67;;
51382;SDS011;37475;43.358;1.248;2023-04-10T14:22:40;4.40;;;2.20;;
51382;SDS011;37475;43.358;1.248;2023-04-10T14:25:06;7.38;;;2.17;;
51382;SDS011;37475;43.358;1.248;2023-04-10T14:27:35;8.55;;;2.40;;
51382;SDS011;37475;43.358;1.248;2023-04-10T14:30:00;6.30;;;2.38;;
51382;SDS011;37475;43.358;1.248;2023-04-10T14:32:26;8.15;;;2.60;;
51382;SDS011;37475;43.358;1.248;2023-04-10T14:34:52;7.43;;;2.47;;
51382;SDS011;37475;43.358;1.248;2023-04-10T14:37:18;8.10;;;2.80;;
51382;SDS011;37475;43.358;1.248;2023-04-10T14:39:44;6.05;;;2.30;;
51382;SDS011;37475;43.358;1.248;2023-04-10T14:42:09;6.82;;;2.70;;
51382;SDS011;37475;43.358;1.248;2023-04-10T14:44:35;7.05;;;3.00;;
51382;SDS011;37475;43.358;1.248;2023-04-10T14:47:01;7.43;;;2.92;;
51382;SDS011;37475;43.358;1.248;2023-04-10T14:49:30;7.45;;;2.83;;
51382;SDS011;37475;43.358;1.248;2023-04-10T14:51:56;10.45;;;3.10;;
51382;SDS011;37475;43.358;1.248;2023-04-10T14:54:22;6.18;;;3.03;;
51382;SDS011;37475;43.358;1.248;2023-04-10T14:56:48;9.82;;;3.22;;
51382;SDS011;37475;43.358;1.248;2023-04-10T14:59:15;9.98;;;3.42;;
51382;SDS011;37475;43.358;1.248;2023-04-10T15:01:41;9.63;;;3.08;;
51382;SDS011;37475;43.358;1.248;2023-04-10T15:04:07;8.27;;;3.10;;
51382;SDS011;37475;43.358;1.248;2023-04-10T15:06:33;8.48;;;3.22;;
51382;SDS011;37475;43.358;1.248;2023-04-10T15:08:59;8.80;;;2.50;;
51382;SDS011;37475;43.358;1.248;2023-04-10T15:11:25;5.95;;;2.88;;
51382;SDS011;37475;43.358;1.248;2023-04-10T15:13:51;11.32;;;3.00;;
51382;SDS011;37475;43.358;1.248;2023-04-10T15:16:17;8.25;;;2.85;;
51382;SDS011;37475;43.358;1.248;2023-04-10T15:18:45;7.15;;;3.05;;
51382;SDS011;37475;43.358;1.248;2023-04-10T15:21:13;7.47;;;3.05;;
51382;SDS011;37475;43.358;1.248;2023-04-10T15:23:39;8.13;;;3.33;;
51382;SDS011;37475;43.358;1.248;2023-04-10T15:26:14;9.20;;;3.33;;
51382;SDS011;37475;43.358;1.248;2023-04-10T15:28:41;16.27;;;3.10;;
51382;SDS011;37475;43.358;1.248;2023-04-10T15:31:07;10.15;;;2.70;;
51382;SDS011;37475;43.358;1.248;2023-04-10T15:33:34;7.85;;;2.53;;